sensor_id;sensor_type;location;lat;lon;timestamp;temperature;humidity
74364;DHT22;62797;49.740;10.154;2023-08-01T00:02:19;17.70;82.60
74364;DHT22;62797;49.740;10.154;2023-08-01T00:04:45;17.70;82.40
74364;DHT22;62797;49.740;10.154;2023-08-01T00:07:11;17.60;82.40
74364;DHT22;62797;49.740;10.154;2023-08-01T00:09:37;17.60;82.80
74364;DHT22;62797;49.740;10.154;2023-08-01T00:12:03;17.60;83.20
74364;DHT22;62797;49.740;10.154;2023-08-01T00:14:29;17.60;83.80
74364;DHT22;62797;49.740;10.154;2023-08-01T00:16:54;17.60;84.30
74364;DHT22;62797;49.740;10.154;2023-08-01T00:19:20;17.60;84.00
74364;DHT22;62797;49.740;10.154;2023-08-01T00:21:46;17.60;84.30
74364;DHT22;62797;49.740;10.154;2023-08-01T00:24:12;17.60;84.40
74364;DHT22;62797;49.740;10.154;2023-08-01T00:26:38;17.70;84.60
74364;DHT22;62797;49.740;10.154;2023-08-01T00:29:04;17.70;84.70
74364;DHT22;62797;49.740;10.154;2023-08-01T00:31:29;17.70;85.10
74364;DHT22;62797;49.740;10.154;2023-08-01T00:33:55;17.60;84.70
74364;DHT22;62797;49.740;10.154;2023-08-01T00:36:21;17.60;85.20
74364;DHT22;62797;49.740;10.154;2023-08-01T00:38:47;17.50;84.90
74364;DHT22;62797;49.740;10.154;2023-08-01T00:41:14;17.60;85.40
74364;DHT22;62797;49.740;10.154;2023-08-01T00:43:40;17.60;85.50
74364;DHT22;62797;49.740;10.154;2023-08-01T00:46:06;17.60;85.80
74364;DHT22;62797;49.740;10.154;2023-08-01T00:48:34;17.50;85.60
74364;DHT22;62797;49.740;10.154;2023-08-01T00:51:06;17.40;85.80
74364;DHT22;62797;49.740;10.154;2023-08-01T00:53:32;17.40;86.40
74364;DHT22;62797;49.740;10.154;2023-08-01T00:55:59;17.40;86.40
74364;DHT22;62797;49.740;10.154;2023-08-01T00:58:25;17.40;86.50
74364;DHT22;62797;49.740;10.154;2023-08-01T01:00:51;17.40;87.30
74364;DHT22;62797;49.740;10.154;2023-08-01T01:03:17;17.40;86.30
74364;DHT22;62797;49.740;10.154;2023-08-01T01:05:49;17.40;86.60
74364;DHT22;62797;49.740;10.154;2023-08-01T01:08:18;17.40;86.90
74364;DHT22;62797;49.740;10.154;2023-08-01T01:10:45;17.40;86.80
74364;DHT22;62797;49.740;10.154;2023-08-01T01:13:11;17.40;87.00
74364;DHT22;62797;49.740;10.154;2023-08-01T01:15:36;17.30;87.10
74364;DHT22;62797;49.740;10.154;2023-08-01T01:18:02;17.30;87.40
74364;DHT22;62797;49.740;10.154;2023-08-01T01:20:37;17.20;87.50
74364;DHT22;62797;49.740;10.154;2023-08-01T01:23:07;17.20;88.00
74364;DHT22;62797;49.740;10.154;2023-08-01T01:25:34;17.20;87.90
74364;DHT22;62797;49.740;10.154;2023-08-01T01:28:04;17.10;88.00
74364;DHT22;62797;49.740;10.154;2023-08-01T01:30:30;17.10;87.90
74364;DHT22;62797;49.740;10.154;2023-08-01T01:32:59;17.00;88.20
74364;DHT22;62797;49.740;10.154;2023-08-01T01:35:25;17.00;88.60
74364;DHT22;62797;49.740;10.154;2023-08-01T01:37:51;17.00;88.80
74364;DHT22;62797;49.740;10.154;2023-08-01T01:40:17;17.00;89.00
74364;DHT22;62797;49.740;10.154;2023-08-01T01:42:42;17.00;88.60
74364;DHT22;62797;49.740;10.154;2023-08-01T01:45:09;17.00;89.00
74364;DHT22;62797;49.740;10.154;2023-08-01T01:47:34;17.00;89.00
74364;DHT22;62797;49.740;10.154;2023-08-01T01:50:00;17.00;89.10
74364;DHT22;62797;49.740;10.154;2023-08-01T01:52:26;16.90;88.90
74364;DHT22;62797;49.740;10.154;2023-08-01T01:54:52;16.90;89.40
74364;DHT22;62797;49.740;10.154;2023-08-01T01:57:17;16.90;89.80
74364;DHT22;62797;49.740;10.154;2023-08-01T01:59:43;16.90;90.00
74364;DHT22;62797;49.740;10.154;2023-08-01T02:02:09;17.00;90.20
74364;DHT22;62797;49.740;10.154;2023-08-01T02:04:35;17.00;89.90
74364;DHT22;62797;49.740;10.154;2023-08-01T02:07:01;17.00;89.90
74364;DHT22;62797;49.740;10.154;2023-08-01T02:09:28;17.00;89.80
74364;DHT22;62797;49.740;10.154;2023-08-01T02:11:54;17.00;90.30
74364;DHT22;62797;49.740;10.154;2023-08-01T02:14:20;17.10;90.30
74364;DHT22;62797;49.740;10.154;2023-08-01T02:16:46;17.10;89.80
74364;DHT22;62797;49.740;10.154;2023-08-01T02:19:11;17.10;89.70
74364;DHT22;62797;49.740;10.154;2023-08-01T02:21:37;17.10;89.90
74364;DHT22;62797;49.740;10.154;2023-08-01T02:24:03;17.10;89.70
74364;DHT22;62797;49.740;10.154;2023-08-01T02:26:30;17.20;89.80
74364;DHT22;62797;49.740;10.154;2023-08-01T02:28:56;17.20;89.60
74364;DHT22;62797;49.740;10.154;2023-08-01T02:31:22;17.20;89.50
74364;DHT22;62797;49.740;10.154;2023-08-01T02:33:48;17.20;89.40
74364;DHT22;62797;49.740;10.154;2023-08-01T02:36:14;17.10;87.70
74364;DHT22;62797;49.740;10.154;2023-08-01T02:38:39;17.00;88.80
74364;DHT22;62797;49.740;10.154;2023-08-01T02:41:05;17.00;89.10
74364;DHT22;62797;49.740;10.154;2023-08-01T02:43:31;17.00;89.50
74364;DHT22;62797;49.740;10.154;2023-08-01T02:45:57;16.90;89.20
74364;DHT22;62797;49.740;10.154;2023-08-01T02:48:25;16.90;89.40
74364;DHT22;62797;49.740;10.154;2023-08-01T02:50:50;17.00;90.10
74364;DHT22;62797;49.740;10.154;2023-08-01T02:53:16;17.00;90.10
74364;DHT22;62797;49.740;10.154;2023-08-01T02:55:42;17.00;90.20
74364;DHT22;62797;49.740;10.154;2023-08-01T02:58:08;17.00;90.10
74364;DHT22;62797;49.740;10.154;2023-08-01T03:00:38;17.00;90.00
74364;DHT22;62797;49.740;10.154;2023-08-01T03:03:04;17.00;90.10
74364;DHT22;62797;49.740;10.154;2023-08-01T03:05:30;17.00;90.70
74364;DHT22;62797;49.740;10.154;2023-08-01T03:07:56;17.00;90.50
74364;DHT22;62797;49.740;10.154;2023-08-01T03:10:21;17.00;89.90
74364;DHT22;62797;49.740;10.154;2023-08-01T03:12:47;16.90;90.00
74364;DHT22;62797;49.740;10.154;2023-08-01T03:15:13;16.90;90.50
74364;DHT22;62797;49.740;10.154;2023-08-01T03:17:38;16.90;90.40
74364;DHT22;62797;49.740;10.154;2023-08-01T03:20:05;16.90;90.30
74364;DHT22;62797;49.740;10.154;2023-08-01T03:22:31;16.80;90.00
74364;DHT22;62797;49.740;10.154;2023-08-01T03:24:57;16.80;90.10
74364;DHT22;62797;49.740;10.154;2023-08-01T03:27:23;16.80;90.40
74364;DHT22;62797;49.740;10.154;2023-08-01T03:29:51;16.80;90.20
74364;DHT22;62797;49.740;10.154;2023-08-01T03:32:17;16.80;90.50
74364;DHT22;62797;49.740;10.154;2023-08-01T03:34:43;16.90;90.50
74364;DHT22;62797;49.740;10.154;2023-08-01T03:37:08;16.90;90.50
74364;DHT22;62797;49.740;10.154;2023-08-01T03:39:34;16.80;90.10
74364;DHT22;62797;49.740;10.154;2023-08-01T03:42:00;16.80;89.80
74364;DHT22;62797;49.740;10.154;2023-08-01T03:44:25;16.90;88.90
74364;DHT22;62797;49.740;10.154;2023-08-01T03:46:52;16.90;88.70
74364;DHT22;62797;49.740;10.154;2023-08-01T03:49:17;16.90;89.50
74364;DHT22;62797;49.740;10.154;2023-08-01T03:51:44;16.90;89.50
74364;DHT22;62797;49.740;10.154;2023-08-01T03:54:11;16.90;89.20
74364;DHT22;62797;49.740;10.154;2023-08-01T03:56:37;16.90;89.20
74364;DHT22;62797;49.740;10.154;2023-08-01T03:59:06;16.80;89.40
74364;DHT22;62797;49.740;10.154;2023-08-01T04:01:31;16.80;88.90
74364;DHT22;62797;49.740;10.154;2023-08-01T04:03:57;16.90;88.90
74364;DHT22;62797;49.740;10.154;2023-08-01T04:06:23;16.90;89.00
74364;DHT22;62797;49.740;10.154;2023-08-01T04:08:49;16.90;88.90
74364;DHT22;62797;49.740;10.154;2023-08-01T04:11:15;17.00;88.20
74364;DHT22;62797;49.740;10.154;2023-08-01T04:13:41;17.00;88.50
74364;DHT22;62797;49.740;10.154;2023-08-01T04:16:06;17.00;87.80
74364;DHT22;62797;49.740;10.154;2023-08-01T04:18:32;16.90;88.30
74364;DHT22;62797;49.740;10.154;2023-08-01T04:20:58;17.00;87.50
74364;DHT22;62797;49.740;10.154;2023-08-01T04:23:24;17.00;87.30
74364;DHT22;62797;49.740;10.154;2023-08-01T04:25:49;17.00;87.50
74364;DHT22;62797;49.740;10.154;2023-08-01T04:28:15;17.00;88.00
74364;DHT22;62797;49.740;10.154;2023-08-01T04:30:41;17.00;87.70
74364;DHT22;62797;49.740;10.154;2023-08-01T04:33:06;17.00;87.30
74364;DHT22;62797;49.740;10.154;2023-08-01T04:35:32;17.20;85.40
74364;DHT22;62797;49.740;10.154;2023-08-01T04:37:58;17.10;85.90
74364;DHT22;62797;49.740;10.154;2023-08-01T04:40:23;17.00;86.80
74364;DHT22;62797;49.740;10.154;2023-08-01T04:42:49;17.10;86.90
74364;DHT22;62797;49.740;10.154;2023-08-01T04:45:15;17.10;87.20
74364;DHT22;62797;49.740;10.154;2023-08-01T04:47:41;17.00;87.30
74364;DHT22;62797;49.740;10.154;2023-08-01T04:50:07;17.00;87.30
74364;DHT22;62797;49.740;10.154;2023-08-01T04:52:32;17.00;87.20
74364;DHT22;62797;49.740;10.154;2023-08-01T04:54:58;17.00;86.70
74364;DHT22;62797;49.740;10.154;2023-08-01T04:57:24;17.10;86.60
74364;DHT22;62797;49.740;10.154;2023-08-01T04:59:50;17.00;87.10
74364;DHT22;62797;49.740;10.154;2023-08-01T05:02:15;17.00;87.80
74364;DHT22;62797;49.740;10.154;2023-08-01T05:04:41;17.00;87.50
74364;DHT22;62797;49.740;10.154;2023-08-01T05:07:07;17.00;88.10
74364;DHT22;62797;49.740;10.154;2023-08-01T05:09:33;17.10;86.70
74364;DHT22;62797;49.740;10.154;2023-08-01T05:11:58;17.00;87.70
74364;DHT22;62797;49.740;10.154;2023-08-01T05:14:24;17.00;87.60
74364;DHT22;62797;49.740;10.154;2023-08-01T05:16:50;17.00;88.00
74364;DHT22;62797;49.740;10.154;2023-08-01T05:19:15;17.00;87.80
74364;DHT22;62797;49.740;10.154;2023-08-01T05:21:41;17.00;88.60
74364;DHT22;62797;49.740;10.154;2023-08-01T05:24:07;17.00;88.40
74364;DHT22;62797;49.740;10.154;2023-08-01T05:26:33;17.00;88.10
74364;DHT22;62797;49.740;10.154;2023-08-01T05:28:58;17.00;86.90
74364;DHT22;62797;49.740;10.154;2023-08-01T05:31:24;17.00;88.60
74364;DHT22;62797;49.740;10.154;2023-08-01T05:33:50;17.00;88.30
74364;DHT22;62797;49.740;10.154;2023-08-01T05:36:15;17.00;88.10
74364;DHT22;62797;49.740;10.154;2023-08-01T05:38:41;17.00;88.40
74364;DHT22;62797;49.740;10.154;2023-08-01T05:41:07;17.00;88.30
74364;DHT22;62797;49.740;10.154;2023-08-01T05:43:33;17.00;88.60
74364;DHT22;62797;49.740;10.154;2023-08-01T05:45:59;16.90;89.20
74364;DHT22;62797;49.740;10.154;2023-08-01T05:48:24;16.90;89.10
74364;DHT22;62797;49.740;10.154;2023-08-01T05:50:50;16.90;89.70
74364;DHT22;62797;49.740;10.154;2023-08-01T05:53:16;16.90;90.20
74364;DHT22;62797;49.740;10.154;2023-08-01T05:55:41;16.90;89.70
74364;DHT22;62797;49.740;10.154;2023-08-01T05:58:07;16.90;90.20
74364;DHT22;62797;49.740;10.154;2023-08-01T06:00:33;17.00;89.90
74364;DHT22;62797;49.740;10.154;2023-08-01T06:02:58;16.90;90.20
74364;DHT22;62797;49.740;10.154;2023-08-01T06:05:26;16.90;90.10
74364;DHT22;62797;49.740;10.154;2023-08-01T06:07:51;16.90;90.30
74364;DHT22;62797;49.740;10.154;2023-08-01T06:10:17;17.00;89.10
74364;DHT22;62797;49.740;10.154;2023-08-01T06:12:43;17.00;89.20
74364;DHT22;62797;49.740;10.154;2023-08-01T06:15:09;16.90;89.70
74364;DHT22;62797;49.740;10.154;2023-08-01T06:17:35;16.90;90.10
74364;DHT22;62797;49.740;10.154;2023-08-01T06:20:01;16.90;90.00
74364;DHT22;62797;49.740;10.154;2023-08-01T06:22:29;16.90;89.40
74364;DHT22;62797;49.740;10.154;2023-08-01T06:24:55;16.90;90.00
74364;DHT22;62797;49.740;10.154;2023-08-01T06:27:21;16.90;89.80
74364;DHT22;62797;49.740;10.154;2023-08-01T06:29:47;16.90;89.80
74364;DHT22;62797;49.740;10.154;2023-08-01T06:32:12;16.80;90.50
74364;DHT22;62797;49.740;10.154;2023-08-01T06:34:38;16.80;91.10
74364;DHT22;62797;49.740;10.154;2023-08-01T06:37:04;16.80;91.10
74364;DHT22;62797;49.740;10.154;2023-08-01T06:39:30;16.70;91.90
74364;DHT22;62797;49.740;10.154;2023-08-01T06:41:55;16.70;91.80
74364;DHT22;62797;49.740;10.154;2023-08-01T06:44:21;16.80;91.90
74364;DHT22;62797;49.740;10.154;2023-08-01T06:46:47;16.80;90.80
74364;DHT22;62797;49.740;10.154;2023-08-01T06:49:13;16.80;91.40
74364;DHT22;62797;49.740;10.154;2023-08-01T06:51:39;16.80;90.40
74364;DHT22;62797;49.740;10.154;2023-08-01T06:54:07;16.80;89.90
74364;DHT22;62797;49.740;10.154;2023-08-01T06:56:33;16.80;91.10
74364;DHT22;62797;49.740;10.154;2023-08-01T06:58:58;16.80;91.50
74364;DHT22;62797;49.740;10.154;2023-08-01T07:01:24;16.70;91.60
74364;DHT22;62797;49.740;10.154;2023-08-01T07:03:50;16.70;92.00
74364;DHT22;62797;49.740;10.154;2023-08-01T07:06:19;16.80;92.30
74364;DHT22;62797;49.740;10.154;2023-08-01T07:08:45;16.90;92.50
74364;DHT22;62797;49.740;10.154;2023-08-01T07:11:10;16.90;93.00
74364;DHT22;62797;49.740;10.154;2023-08-01T07:13:36;16.90;91.50
74364;DHT22;62797;49.740;10.154;2023-08-01T07:16:02;16.90;91.60
74364;DHT22;62797;49.740;10.154;2023-08-01T07:18:27;16.90;92.30
74364;DHT22;62797;49.740;10.154;2023-08-01T07:21:03;16.80;92.00
74364;DHT22;62797;49.740;10.154;2023-08-01T07:23:31;16.90;92.20
74364;DHT22;62797;49.740;10.154;2023-08-01T07:25:57;16.80;92.20
74364;DHT22;62797;49.740;10.154;2023-08-01T07:28:22;16.80;92.20
74364;DHT22;62797;49.740;10.154;2023-08-01T07:30:48;16.80;92.10
74364;DHT22;62797;49.740;10.154;2023-08-01T07:33:14;16.80;92.30
74364;DHT22;62797;49.740;10.154;2023-08-01T07:35:40;16.70;92.60
74364;DHT22;62797;49.740;10.154;2023-08-01T07:38:05;16.80;92.60
74364;DHT22;62797;49.740;10.154;2023-08-01T07:40:31;16.80;92.10
74364;DHT22;62797;49.740;10.154;2023-08-01T07:42:57;16.80;92.00
74364;DHT22;62797;49.740;10.154;2023-08-01T07:45:25;16.80;92.10
74364;DHT22;62797;49.740;10.154;2023-08-01T07:47:50;16.90;91.30
74364;DHT22;62797;49.740;10.154;2023-08-01T07:50:16;16.80;91.60
74364;DHT22;62797;49.740;10.154;2023-08-01T07:52:42;16.90;92.20
74364;DHT22;62797;49.740;10.154;2023-08-01T07:55:08;16.80;92.00
74364;DHT22;62797;49.740;10.154;2023-08-01T07:57:33;16.80;92.20
74364;DHT22;62797;49.740;10.154;2023-08-01T07:59:59;16.90;92.10
74364;DHT22;62797;49.740;10.154;2023-08-01T08:02:24;16.90;91.90
74364;DHT22;62797;49.740;10.154;2023-08-01T08:04:51;17.00;91.60
74364;DHT22;62797;49.740;10.154;2023-08-01T08:07:17;17.00;91.60
74364;DHT22;62797;49.740;10.154;2023-08-01T08:09:42;17.00;92.10
74364;DHT22;62797;49.740;10.154;2023-08-01T08:12:08;17.00;91.50
74364;DHT22;62797;49.740;10.154;2023-08-01T08:14:34;17.00;91.40
74364;DHT22;62797;49.740;10.154;2023-08-01T08:17:00;17.00;91.50
74364;DHT22;62797;49.740;10.154;2023-08-01T08:19:25;17.10;91.70
74364;DHT22;62797;49.740;10.154;2023-08-01T08:21:51;17.20;92.00
74364;DHT22;62797;49.740;10.154;2023-08-01T08:24:17;17.30;91.30
74364;DHT22;62797;49.740;10.154;2023-08-01T08:26:42;17.30;91.00
74364;DHT22;62797;49.740;10.154;2023-08-01T08:29:08;17.30;90.50
74364;DHT22;62797;49.740;10.154;2023-08-01T08:31:34;17.30;90.40
74364;DHT22;62797;49.740;10.154;2023-08-01T08:33:59;17.30;89.50
74364;DHT22;62797;49.740;10.154;2023-08-01T08:36:25;17.30;89.20
74364;DHT22;62797;49.740;10.154;2023-08-01T08:38:51;17.30;89.70
74364;DHT22;62797;49.740;10.154;2023-08-01T08:41:21;17.30;89.50
74364;DHT22;62797;49.740;10.154;2023-08-01T08:43:48;17.50;90.60
74364;DHT22;62797;49.740;10.154;2023-08-01T08:46:16;17.50;89.50
74364;DHT22;62797;49.740;10.154;2023-08-01T08:48:42;17.50;89.70
74364;DHT22;62797;49.740;10.154;2023-08-01T08:51:09;17.50;90.40
74364;DHT22;62797;49.740;10.154;2023-08-01T08:53:36;17.60;88.80
74364;DHT22;62797;49.740;10.154;2023-08-01T08:56:02;17.70;89.10
74364;DHT22;62797;49.740;10.154;2023-08-01T08:58:31;17.60;89.40
74364;DHT22;62797;49.740;10.154;2023-08-01T09:01:00;17.70;88.90
74364;DHT22;62797;49.740;10.154;2023-08-01T09:03:28;17.80;87.60
74364;DHT22;62797;49.740;10.154;2023-08-01T09:06:04;17.80;87.80
74364;DHT22;62797;49.740;10.154;2023-08-01T09:08:35;17.90;87.90
74364;DHT22;62797;49.740;10.154;2023-08-01T09:11:02;18.00;88.50
74364;DHT22;62797;49.740;10.154;2023-08-01T09:13:28;18.10;86.60
74364;DHT22;62797;49.740;10.154;2023-08-01T09:15:54;18.10;86.70
74364;DHT22;62797;49.740;10.154;2023-08-01T09:18:21;18.10;86.00
74364;DHT22;62797;49.740;10.154;2023-08-01T09:20:48;18.00;86.50
74364;DHT22;62797;49.740;10.154;2023-08-01T09:23:16;17.90;87.50
74364;DHT22;62797;49.740;10.154;2023-08-01T09:25:43;18.00;85.80
74364;DHT22;62797;49.740;10.154;2023-08-01T09:28:19;18.00;86.60
74364;DHT22;62797;49.740;10.154;2023-08-01T09:30:50;18.00;85.60
74364;DHT22;62797;49.740;10.154;2023-08-01T09:33:17;18.00;85.90
74364;DHT22;62797;49.740;10.154;2023-08-01T09:35:43;18.00;84.70
74364;DHT22;62797;49.740;10.154;2023-08-01T09:38:13;18.00;87.40
74364;DHT22;62797;49.740;10.154;2023-08-01T09:40:40;18.20;87.00
74364;DHT22;62797;49.740;10.154;2023-08-01T09:43:06;18.30;85.80
74364;DHT22;62797;49.740;10.154;2023-08-01T09:45:32;18.40;82.90
74364;DHT22;62797;49.740;10.154;2023-08-01T09:47:59;18.40;81.60
74364;DHT22;62797;49.740;10.154;2023-08-01T09:50:26;18.40;81.30
74364;DHT22;62797;49.740;10.154;2023-08-01T09:52:52;18.40;79.80
74364;DHT22;62797;49.740;10.154;2023-08-01T09:55:34;18.30;81.30
74364;DHT22;62797;49.740;10.154;2023-08-01T09:58:00;18.30;78.90
74364;DHT22;62797;49.740;10.154;2023-08-01T10:00:27;18.20;78.00
74364;DHT22;62797;49.740;10.154;2023-08-01T10:02:56;17.80;75.00
74364;DHT22;62797;49.740;10.154;2023-08-01T10:05:30;17.10;77.60
74364;DHT22;62797;49.740;10.154;2023-08-01T10:08:02;16.60;81.80
74364;DHT22;62797;49.740;10.154;2023-08-01T10:10:29;16.30;84.60
74364;DHT22;62797;49.740;10.154;2023-08-01T10:12:56;16.20;85.80
74364;DHT22;62797;49.740;10.154;2023-08-01T10:15:24;16.20;85.40
74364;DHT22;62797;49.740;10.154;2023-08-01T10:17:51;16.10;82.60
74364;DHT22;62797;49.740;10.154;2023-08-01T10:20:16;16.10;85.20
74364;DHT22;62797;49.740;10.154;2023-08-01T10:22:44;16.00;85.50
74364;DHT22;62797;49.740;10.154;2023-08-01T10:25:10;16.20;86.60
74364;DHT22;62797;49.740;10.154;2023-08-01T10:27:36;16.30;87.60
74364;DHT22;62797;49.740;10.154;2023-08-01T10:30:04;16.40;88.00
74364;DHT22;62797;49.740;10.154;2023-08-01T10:32:34;16.60;88.50
74364;DHT22;62797;49.740;10.154;2023-08-01T10:35:01;16.90;86.10
74364;DHT22;62797;49.740;10.154;2023-08-01T10:37:39;17.10;86.10
74364;DHT22;62797;49.740;10.154;2023-08-01T10:40:06;17.30;86.60
74364;DHT22;62797;49.740;10.154;2023-08-01T10:42:41;17.50;85.20
74364;DHT22;62797;49.740;10.154;2023-08-01T10:45:23;17.50;86.50
74364;DHT22;62797;49.740;10.154;2023-08-01T10:47:50;17.70;87.30
74364;DHT22;62797;49.740;10.154;2023-08-01T10:50:16;18.00;87.40
74364;DHT22;62797;49.740;10.154;2023-08-01T10:52:43;18.20;78.90
74364;DHT22;62797;49.740;10.154;2023-08-01T10:55:09;18.20;77.70
74364;DHT22;62797;49.740;10.154;2023-08-01T10:57:39;18.20;75.30
74364;DHT22;62797;49.740;10.154;2023-08-01T11:00:16;18.20;79.10
74364;DHT22;62797;49.740;10.154;2023-08-01T11:02:51;18.40;80.30
74364;DHT22;62797;49.740;10.154;2023-08-01T11:05:17;18.60;80.40
74364;DHT22;62797;49.740;10.154;2023-08-01T11:07:53;18.70;80.80
74364;DHT22;62797;49.740;10.154;2023-08-01T11:10:20;18.80;72.70
74364;DHT22;62797;49.740;10.154;2023-08-01T11:12:46;18.70;69.20
74364;DHT22;62797;49.740;10.154;2023-08-01T11:15:13;18.60;73.70
74364;DHT22;62797;49.740;10.154;2023-08-01T11:17:48;18.50;73.40
74364;DHT22;62797;49.740;10.154;2023-08-01T11:20:15;18.50;77.10
74364;DHT22;62797;49.740;10.154;2023-08-01T11:25:16;18.60;78.90
74364;DHT22;62797;49.740;10.154;2023-08-01T11:27:42;18.50;76.90
74364;DHT22;62797;49.740;10.154;2023-08-01T11:30:08;18.50;78.20
74364;DHT22;62797;49.740;10.154;2023-08-01T11:32:36;18.40;77.60
74364;DHT22;62797;49.740;10.154;2023-08-01T11:35:02;18.60;71.40
74364;DHT22;62797;49.740;10.154;2023-08-01T11:37:28;18.80;72.30
74364;DHT22;62797;49.740;10.154;2023-08-01T11:39:54;18.80;69.40
74364;DHT22;62797;49.740;10.154;2023-08-01T11:42:20;18.80;68.80
74364;DHT22;62797;49.740;10.154;2023-08-01T11:44:46;18.70;71.40
74364;DHT22;62797;49.740;10.154;2023-08-01T11:47:16;18.50;73.80
74364;DHT22;62797;49.740;10.154;2023-08-01T11:49:49;18.50;70.70
74364;DHT22;62797;49.740;10.154;2023-08-01T11:52:26;18.40;71.70
74364;DHT22;62797;49.740;10.154;2023-08-01T11:54:53;18.40;71.80
74364;DHT22;62797;49.740;10.154;2023-08-01T11:57:23;18.40;71.60
74364;DHT22;62797;49.740;10.154;2023-08-01T11:59:55;18.40;74.00
74364;DHT22;62797;49.740;10.154;2023-08-01T12:04:48;18.40;73.90
74364;DHT22;62797;49.740;10.154;2023-08-01T12:07:14;18.30;81.60
74364;DHT22;62797;49.740;10.154;2023-08-01T12:09:40;18.50;80.50
74364;DHT22;62797;49.740;10.154;2023-08-01T12:12:06;18.70;79.20
74364;DHT22;62797;49.740;10.154;2023-08-01T12:14:32;19.00;83.00
74364;DHT22;62797;49.740;10.154;2023-08-01T12:16:58;19.20;85.50
74364;DHT22;62797;49.740;10.154;2023-08-01T12:19:23;19.30;84.20
74364;DHT22;62797;49.740;10.154;2023-08-01T12:21:49;19.50;81.80
74364;DHT22;62797;49.740;10.154;2023-08-01T12:24:15;19.60;78.40
74364;DHT22;62797;49.740;10.154;2023-08-01T12:26:41;19.60;76.10
74364;DHT22;62797;49.740;10.154;2023-08-01T12:29:07;19.70;78.30
74364;DHT22;62797;49.740;10.154;2023-08-01T12:31:33;19.90;67.90
74364;DHT22;62797;49.740;10.154;2023-08-01T12:33:59;20.00;55.80
74364;DHT22;62797;49.740;10.154;2023-08-01T12:36:25;19.70;64.60
74364;DHT22;62797;49.740;10.154;2023-08-01T12:38:52;19.90;58.40
74364;DHT22;62797;49.740;10.154;2023-08-01T12:41:17;20.00;55.20
74364;DHT22;62797;49.740;10.154;2023-08-01T12:43:43;20.00;58.50
74364;DHT22;62797;49.740;10.154;2023-08-01T12:46:09;20.30;53.20
74364;DHT22;62797;49.740;10.154;2023-08-01T12:48:34;20.30;51.10
74364;DHT22;62797;49.740;10.154;2023-08-01T12:51:00;20.20;49.10
74364;DHT22;62797;49.740;10.154;2023-08-01T12:53:28;20.10;50.30
74364;DHT22;62797;49.740;10.154;2023-08-01T12:55:59;20.00;56.20
74364;DHT22;62797;49.740;10.154;2023-08-01T12:58:25;20.20;52.30
74364;DHT22;62797;49.740;10.154;2023-08-01T13:00:50;20.20;53.70
74364;DHT22;62797;49.740;10.154;2023-08-01T13:03:16;20.30;48.00
74364;DHT22;62797;49.740;10.154;2023-08-01T13:05:42;20.20;49.80
74364;DHT22;62797;49.740;10.154;2023-08-01T13:08:08;20.30;52.00
74364;DHT22;62797;49.740;10.154;2023-08-01T13:10:37;20.50;53.50
74364;DHT22;62797;49.740;10.154;2023-08-01T13:13:03;20.70;51.10
74364;DHT22;62797;49.740;10.154;2023-08-01T13:15:29;20.90;50.20
74364;DHT22;62797;49.740;10.154;2023-08-01T13:17:55;21.20;42.90
74364;DHT22;62797;49.740;10.154;2023-08-01T13:20:21;21.20;44.40
74364;DHT22;62797;49.740;10.154;2023-08-01T13:22:49;21.30;47.50
74364;DHT22;62797;49.740;10.154;2023-08-01T13:25:16;21.20;39.00
74364;DHT22;62797;49.740;10.154;2023-08-01T13:27:42;21.40;46.10
74364;DHT22;62797;49.740;10.154;2023-08-01T13:30:08;21.60;42.30
74364;DHT22;62797;49.740;10.154;2023-08-01T13:32:35;21.70;41.00
74364;DHT22;62797;49.740;10.154;2023-08-01T13:35:01;21.90;41.20
74364;DHT22;62797;49.740;10.154;2023-08-01T13:37:27;21.80;44.50
74364;DHT22;62797;49.740;10.154;2023-08-01T13:39:56;21.90;41.00
74364;DHT22;62797;49.740;10.154;2023-08-01T13:42:22;21.80;40.30
74364;DHT22;62797;49.740;10.154;2023-08-01T13:44:48;21.90;40.10
74364;DHT22;62797;49.740;10.154;2023-08-01T13:47:13;22.10;36.00
74364;DHT22;62797;49.740;10.154;2023-08-01T13:49:39;22.30;34.80
74364;DHT22;62797;49.740;10.154;2023-08-01T13:52:05;22.60;33.40
74364;DHT22;62797;49.740;10.154;2023-08-01T13:54:31;22.70;36.20
74364;DHT22;62797;49.740;10.154;2023-08-01T13:56:57;22.70;27.10
74364;DHT22;62797;49.740;10.154;2023-08-01T13:59:23;22.70;30.50
74364;DHT22;62797;49.740;10.154;2023-08-01T14:01:49;22.80;31.60
74364;DHT22;62797;49.740;10.154;2023-08-01T14:04:15;22.80;33.30
74364;DHT22;62797;49.740;10.154;2023-08-01T14:06:41;22.60;33.30
74364;DHT22;62797;49.740;10.154;2023-08-01T14:09:10;22.30;29.90
74364;DHT22;62797;49.740;10.154;2023-08-01T14:11:36;22.00;29.00
74364;DHT22;62797;49.740;10.154;2023-08-01T14:14:02;21.70;31.80
74364;DHT22;62797;49.740;10.154;2023-08-01T14:16:29;21.70;33.80
74364;DHT22;62797;49.740;10.154;2023-08-01T14:18:55;21.60;36.30
74364;DHT22;62797;49.740;10.154;2023-08-01T14:21:20;21.70;34.30
74364;DHT22;62797;49.740;10.154;2023-08-01T14:23:46;22.10;33.30
74364;DHT22;62797;49.740;10.154;2023-08-01T14:26:13;22.40;27.80
74364;DHT22;62797;49.740;10.154;2023-08-01T14:28:38;22.80;26.40
74364;DHT22;62797;49.740;10.154;2023-08-01T14:31:04;23.00;28.10
74364;DHT22;62797;49.740;10.154;2023-08-01T14:33:30;22.80;26.60
74364;DHT22;62797;49.740;10.154;2023-08-01T14:35:56;22.90;27.40
74364;DHT22;62797;49.740;10.154;2023-08-01T14:38:23;22.80;27.00
74364;DHT22;62797;49.740;10.154;2023-08-01T14:40:48;22.60;26.80
74364;DHT22;62797;49.740;10.154;2023-08-01T14:43:14;22.60;27.90
74364;DHT22;62797;49.740;10.154;2023-08-01T14:45:41;22.70;29.10
74364;DHT22;62797;49.740;10.154;2023-08-01T14:48:07;22.60;26.70
74364;DHT22;62797;49.740;10.154;2023-08-01T14:50:33;22.40;27.40
74364;DHT22;62797;49.740;10.154;2023-08-01T14:53:02;22.40;26.90
74364;DHT22;62797;49.740;10.154;2023-08-01T14:55:29;22.20;27.70
74364;DHT22;62797;49.740;10.154;2023-08-01T14:57:55;22.20;28.30
74364;DHT22;62797;49.740;10.154;2023-08-01T15:00:20;22.40;28.10
74364;DHT22;62797;49.740;10.154;2023-08-01T15:02:46;22.50;28.20
74364;DHT22;62797;49.740;10.154;2023-08-01T15:05:14;22.40;27.60
74364;DHT22;62797;49.740;10.154;2023-08-01T15:07:40;22.40;27.30
74364;DHT22;62797;49.740;10.154;2023-08-01T15:10:06;22.20;27.70
74364;DHT22;62797;49.740;10.154;2023-08-01T15:12:31;22.10;27.30
74364;DHT22;62797;49.740;10.154;2023-08-01T15:14:57;22.00;26.80
74364;DHT22;62797;49.740;10.154;2023-08-01T15:17:23;22.00;27.40